createdAt,value
2024-02-10T00:00:07.875Z,38.33
2024-02-10T00:02:11.812Z,43.10
2024-02-10T00:04:16.373Z,45.23
2024-02-10T00:06:18.753Z,47.13
2024-02-10T00:08:23.791Z,44.63
2024-02-10T00:10:28.951Z,42.80
2024-02-10T00:12:32.714Z,39.17
2024-02-10T00:14:35.673Z,44.53
2024-02-10T00:16:38.330Z,41.20
2024-02-10T00:18:42.308Z,39.07
2024-02-10T00:20:45.135Z,43.50
2024-02-10T00:22:49.223Z,44.10
2024-02-10T00:24:52.718Z,34.23
2024-02-10T00:26:54.895Z,39.33
2024-02-10T00:28:58.502Z,40.70
2024-02-10T00:31:01.312Z,46.53
2024-02-10T00:33:05.846Z,42.83
2024-02-10T00:35:08.348Z,38.50
2024-02-10T00:37:11.617Z,41.60
2024-02-10T00:39:13.971Z,39.93
2024-02-10T00:41:18.055Z,42.37
2024-02-10T00:43:20.833Z,46.30
2024-02-10T00:45:23.578Z,38.90
2024-02-10T00:47:26.558Z,39.50
2024-02-10T00:49:29.173Z,36.03
2024-02-10T00:51:31.658Z,40.80
2024-02-10T00:53:41.503Z,37.13
2024-02-10T00:55:44.399Z,32.30
2024-02-10T00:57:48.155Z,36.50
2024-02-10T00:59:50.555Z,38.07
2024-02-10T01:01:53.432Z,39.10
2024-02-10T01:03:57.284Z,47.03
2024-02-10T01:05:59.772Z,40.33
2024-02-10T01:08:02.123Z,42.37
2024-02-10T01:10:07.701Z,39.13
2024-02-10T01:12:09.935Z,42.93
2024-02-10T01:14:13.873Z,39.57
2024-02-10T01:16:17.166Z,35.63
2024-02-10T01:18:19.791Z,38.47
2024-02-10T01:20:22.055Z,41.67
2024-02-10T01:22:30.841Z,31.83
2024-02-10T01:24:33.148Z,31.60
2024-02-10T01:26:38.963Z,31.97
2024-02-10T01:28:45.977Z,34.40
2024-02-10T01:30:52.637Z,34.13
2024-02-10T01:32:59.996Z,33.70
2024-02-10T01:35:05.154Z,33.90
2024-02-10T01:37:09.174Z,36.73
2024-02-10T01:39:11.739Z,34.93
2024-02-10T01:41:16.888Z,34.93
2024-02-10T01:43:19.764Z,41.83
2024-02-10T01:45:22.040Z,32.70
2024-02-10T01:47:25.835Z,37.60
2024-02-10T01:49:28.943Z,38.00
2024-02-10T01:51:32.248Z,41.37
2024-02-10T01:53:35.930Z,38.03
2024-02-10T01:55:38.782Z,41.97
2024-02-10T01:57:41.548Z,43.77
2024-02-10T01:59:44.617Z,35.17
2024-02-10T02:01:49.946Z,41.77
2024-02-10T02:03:54.589Z,38.23
2024-02-10T02:05:57.149Z,39.07
2024-02-10T02:08:00.848Z,39.70
2024-02-10T02:10:03.778Z,44.37
2024-02-10T02:12:08.553Z,36.33
2024-02-10T02:14:11.952Z,37.67
2024-02-10T02:16:14.605Z,41.93
2024-02-10T02:18:17.005Z,41.90
2024-02-10T02:20:21.500Z,37.80
2024-02-10T02:22:26.938Z,39.33
2024-02-10T02:24:32.565Z,39.10
2024-02-10T02:26:35.080Z,47.67
2024-02-10T02:28:39.304Z,45.80
2024-02-10T02:30:41.527Z,36.63
2024-02-10T02:32:44.163Z,34.37
2024-02-10T02:34:48.617Z,43.37
2024-02-10T02:36:53.999Z,43.37
2024-02-10T02:38:56.244Z,39.00
2024-02-10T02:40:58.837Z,33.80
2024-02-10T02:43:03.991Z,45.20
2024-02-10T02:45:12.192Z,40.05
2024-02-10T02:47:14.486Z,42.50
2024-02-10T02:49:17.677Z,39.87
2024-02-10T02:51:21.750Z,39.33
2024-02-10T02:53:27.160Z,39.80
2024-02-10T02:55:33.016Z,38.20
2024-02-10T02:57:36.033Z,43.10
2024-02-10T02:59:38.203Z,40.43
2024-02-10T03:01:42.302Z,35.50
2024-02-10T03:03:48.253Z,37.63
2024-02-10T03:05:50.929Z,31.77
2024-02-10T03:07:53.170Z,38.20
2024-02-10T03:09:55.783Z,42.27
2024-02-10T03:11:57.984Z,39.30
2024-02-10T03:14:00.754Z,38.20
2024-02-10T03:16:03.625Z,39.27
2024-02-10T03:18:06.839Z,39.93
2024-02-10T03:20:10.774Z,36.83
2024-02-10T03:22:14.372Z,38.93
2024-02-10T03:24:18.083Z,42.40
2024-02-10T03:26:20.527Z,40.00
2024-02-10T03:28:25.695Z,43.13
2024-02-10T03:30:28.568Z,36.37
2024-02-10T03:32:34.272Z,44.07
2024-02-10T03:34:37.297Z,50.30
2024-02-10T03:36:40.091Z,46.63
2024-02-10T03:38:43.066Z,44.90
2024-02-10T03:40:47.819Z,40.87
2024-02-10T03:42:50.399Z,46.13
2024-02-10T03:44:54.009Z,38.77
2024-02-10T03:46:58.308Z,42.40
2024-02-10T03:49:01.144Z,45.47
2024-02-10T03:51:03.726Z,33.87
2024-02-10T03:53:05.982Z,39.80
2024-02-10T03:55:10.345Z,38.07
2024-02-10T03:57:12.832Z,35.10
2024-02-10T03:59:16.433Z,39.90
2024-02-10T04:01:18.641Z,37.53
2024-02-10T04:03:22.319Z,39.87
2024-02-10T04:05:29.183Z,40.87
2024-02-10T04:07:34.964Z,39.50
2024-02-10T04:09:37.081Z,40.30
2024-02-10T04:11:39.580Z,40.73
2024-02-10T04:13:45.235Z,37.77
2024-02-10T04:15:47.742Z,42.27
2024-02-10T04:17:54.281Z,40.93
2024-02-10T04:19:57.560Z,33.30
2024-02-10T04:21:59.880Z,36.00
2024-02-10T04:24:02.334Z,42.07
2024-02-10T04:26:08.597Z,38.50
2024-02-10T04:28:11.985Z,40.23
2024-02-10T04:30:15.041Z,37.00
2024-02-10T04:32:17.987Z,30.70
2024-02-10T04:34:20.246Z,34.47
2024-02-10T04:36:24.012Z,40.70
2024-02-10T04:38:26.305Z,31.27
2024-02-10T04:40:28.921Z,33.97
2024-02-10T04:42:32.440Z,38.13
2024-02-10T04:44:35.591Z,32.67
2024-02-10T04:46:37.793Z,34.57
2024-02-10T04:48:40.312Z,38.58
2024-02-10T04:50:42.535Z,46.70
2024-02-10T04:52:45.366Z,41.17
2024-02-10T04:54:55.012Z,63.25
2024-02-10T04:59:02.589Z,94.60
2024-02-10T05:01:05.297Z,79.20
2024-02-10T05:03:07.549Z,59.63
2024-02-10T05:05:12.149Z,60.38
2024-02-10T05:07:19.349Z,51.45
2024-02-10T05:09:22.161Z,62.53
2024-02-10T05:11:24.407Z,55.25
2024-02-10T05:13:26.935Z,48.08
2024-02-10T05:15:29.209Z,46.92
2024-02-10T05:17:31.647Z,49.70
2024-02-10T05:19:34.764Z,45.28
2024-02-10T05:21:38.674Z,38.13
2024-02-10T05:23:42.338Z,35.03
2024-02-10T05:25:44.797Z,32.42
2024-02-10T05:27:48.178Z,41.53
2024-02-10T05:29:50.755Z,34.60
2024-02-10T05:31:52.998Z,29.13
2024-02-10T05:33:55.587Z,30.05
2024-02-10T05:35:57.836Z,30.30
2024-02-10T05:38:04.733Z,32.17
2024-02-10T05:40:10.905Z,32.67
2024-02-10T05:42:14.862Z,30.17
2024-02-10T05:44:17.432Z,31.63
2024-02-10T05:46:19.893Z,28.37
2024-02-10T05:48:28.909Z,33.35
2024-02-10T05:50:33.789Z,27.98
2024-02-10T05:52:40.186Z,25.65
2024-02-10T05:54:42.615Z,27.75
2024-02-10T05:56:46.304Z,32.07
2024-02-10T05:58:49.126Z,30.50
2024-02-10T06:00:53.375Z,24.30
2024-02-10T06:02:57.189Z,27.70
2024-02-10T06:05:00.368Z,32.97
2024-02-10T06:07:08.668Z,33.22
2024-02-10T06:09:11.345Z,29.73
2024-02-10T06:11:19.010Z,38.53
2024-02-10T06:13:21.170Z,31.33
2024-02-10T06:15:27.033Z,31.47
2024-02-10T06:17:30.026Z,30.90
2024-02-10T06:19:32.583Z,29.33
2024-02-10T06:21:35.188Z,29.07
2024-02-10T06:23:41.213Z,37.77
2024-02-10T06:25:44.382Z,32.23
2024-02-10T06:27:47.141Z,35.17
2024-02-10T06:29:50.031Z,40.17
2024-02-10T06:31:52.536Z,40.90
2024-02-10T06:33:56.018Z,43.33
2024-02-10T06:36:00.104Z,43.70
2024-02-10T06:38:02.284Z,38.53
2024-02-10T06:40:09.810Z,38.70
2024-02-10T06:42:12.795Z,40.53
2024-02-10T06:44:15.222Z,38.77
2024-02-10T06:46:18.387Z,37.97
2024-02-10T06:48:22.293Z,37.30
2024-02-10T06:50:30.402Z,39.13
2024-02-10T06:52:38.335Z,35.80
2024-02-10T06:54:40.548Z,45.40
2024-02-10T06:56:45.559Z,43.37
2024-02-10T06:58:50.498Z,46.93
2024-02-10T07:00:53.140Z,44.27
2024-02-10T07:02:58.551Z,40.47
2024-02-10T07:05:01.559Z,45.70
2024-02-10T07:07:04.402Z,40.17
2024-02-10T07:09:08.229Z,42.30
2024-02-10T07:11:10.481Z,48.23
2024-02-10T07:13:13.088Z,46.83
2024-02-10T07:15:20.153Z,40.93
2024-02-10T07:17:22.733Z,40.97
2024-02-10T07:19:25.676Z,40.00
2024-02-10T07:21:28.237Z,35.97
2024-02-10T07:23:30.381Z,42.83
2024-02-10T07:25:34.837Z,39.05
2024-02-10T07:27:38.277Z,42.03
2024-02-10T07:29:46.148Z,42.00
2024-02-10T07:31:48.458Z,36.38
2024-02-10T07:33:51.135Z,41.70
2024-02-10T07:35:53.647Z,38.40
2024-02-10T07:37:56.179Z,35.33
2024-02-10T07:39:58.382Z,35.70
2024-02-10T07:42:02.599Z,36.33
2024-02-10T07:44:14.154Z,30.45
2024-02-10T07:46:18.224Z,33.25
2024-02-10T07:48:20.569Z,33.47
2024-02-10T07:50:23.209Z,34.78
2024-02-10T07:52:32.144Z,37.60
2024-02-10T07:54:35.448Z,31.85
2024-02-10T07:56:39.066Z,37.65
2024-02-10T07:58:41.594Z,40.70
2024-02-10T08:00:44.257Z,40.85
2024-02-10T08:02:46.964Z,44.20
2024-02-10T08:04:59.206Z,39.60
2024-02-10T08:07:01.768Z,41.30
2024-02-10T08:09:04.326Z,39.63
2024-02-10T08:11:06.905Z,41.70
2024-02-10T08:13:10.165Z,45.63
2024-02-10T08:15:12.932Z,34.55
2024-02-10T08:17:15.509Z,38.85
2024-02-10T08:19:19.572Z,36.25
2024-02-10T08:21:27.408Z,37.15
2024-02-10T08:23:29.963Z,46.78
2024-02-10T08:25:32.270Z,39.45
2024-02-10T08:27:34.884Z,41.08
2024-02-10T08:29:37.178Z,36.92
2024-02-10T08:31:39.792Z,38.05
2024-02-10T08:33:46.218Z,39.42
2024-02-10T08:35:48.879Z,40.17
2024-02-10T08:37:51.696Z,43.05
2024-02-10T08:39:54.152Z,38.60
2024-02-10T08:41:56.398Z,37.28
2024-02-10T08:43:59.320Z,39.58
2024-02-10T08:46:02.233Z,41.28
2024-02-10T08:48:11.742Z,37.05
2024-02-10T08:50:14.062Z,40.95
2024-02-10T08:52:24.015Z,36.17
2024-02-10T08:54:31.928Z,37.10
2024-02-10T08:56:40.077Z,35.47
2024-02-10T08:58:42.444Z,38.05
2024-02-10T09:00:47.456Z,43.53
2024-02-10T09:02:52.268Z,39.35
2024-02-10T09:04:55.427Z,38.10
2024-02-10T09:07:02.137Z,46.40
2024-02-10T09:09:05.677Z,43.15
2024-02-10T09:11:07.940Z,47.75
2024-02-10T09:13:10.492Z,48.05
2024-02-10T09:15:12.969Z,41.03
2024-02-10T09:17:15.491Z,47.83
2024-02-10T09:19:20.036Z,41.45
2024-02-10T09:21:22.526Z,48.88
2024-02-10T09:23:24.708Z,46.50
2024-02-10T09:25:29.214Z,44.88
2024-02-10T09:27:31.498Z,41.85
2024-02-10T09:29:35.983Z,38.80
2024-02-10T09:31:44.016Z,46.08
2024-02-10T09:33:47.318Z,41.25
2024-02-10T09:35:51.864Z,38.80
2024-02-10T09:37:54.450Z,46.78
2024-02-10T09:39:56.974Z,47.78
2024-02-10T09:42:05.503Z,38.80
2024-02-10T09:44:12.655Z,40.65
2024-02-10T09:46:15.941Z,45.50
2024-02-10T09:48:21.502Z,42.33
2024-02-10T09:50:31.471Z,48.97
2024-02-10T09:52:40.244Z,42.47
2024-02-10T09:54:43.190Z,44.72
2024-02-10T09:56:45.474Z,51.72
2024-02-10T09:58:50.811Z,49.92
2024-02-10T10:00:54.195Z,49.75
2024-02-10T10:03:04.248Z,51.25
2024-02-10T10:05:07.537Z,45.88
2024-02-10T10:07:10.468Z,50.95
2024-02-10T10:09:16.143Z,49.08
2024-02-10T10:11:18.601Z,44.60
2024-02-10T10:13:20.961Z,52.85
2024-02-10T10:15:23.439Z,48.00
2024-02-10T10:17:37.283Z,47.88
2024-02-10T10:19:39.870Z,49.08
2024-02-10T10:21:42.078Z,53.08
2024-02-10T10:23:47.808Z,51.97
2024-02-10T10:25:50.121Z,50.80
2024-02-10T10:27:55.215Z,47.65
2024-02-10T10:29:57.584Z,49.50
2024-02-10T10:32:03.021Z,49.58
2024-02-10T10:34:07.888Z,47.60
2024-02-10T10:36:10.829Z,47.58
2024-02-10T10:38:14.017Z,55.40
2024-02-10T10:40:17.850Z,56.72
2024-02-10T10:42:23.297Z,50.67
2024-02-10T10:44:27.471Z,46.50
2024-02-10T10:46:31.720Z,47.53
2024-02-10T10:48:35.294Z,46.53
2024-02-10T10:50:37.830Z,47.03
2024-02-10T10:52:43.907Z,48.67
2024-02-10T10:54:46.834Z,45.97
2024-02-10T10:56:49.810Z,44.67
2024-02-10T10:58:59.493Z,43.40
2024-02-10T11:01:04.601Z,45.17
2024-02-10T11:03:07.109Z,47.35
2024-02-10T11:05:12.105Z,45.63
2024-02-10T11:07:16.823Z,44.67
2024-02-10T11:09:23.011Z,51.47
2024-02-10T11:11:25.374Z,44.40
2024-02-10T11:13:32.136Z,44.40
2024-02-10T11:15:42.301Z,46.13
2024-02-10T11:17:45.056Z,45.30
2024-02-10T11:20:05.751Z,41.85
2024-02-10T11:22:11.612Z,46.67
2024-02-10T11:24:18.160Z,46.90
2024-02-10T11:26:21.622Z,51.20
2024-02-10T11:28:24.904Z,45.00
2024-02-10T11:30:32.896Z,43.38
2024-02-10T11:32:35.502Z,43.50
2024-02-10T11:34:38.340Z,44.17
2024-02-10T11:36:41.432Z,44.70
2024-02-10T11:38:43.874Z,40.78
2024-02-10T11:40:46.424Z,41.63
2024-02-10T11:42:49.024Z,42.15
2024-02-10T11:44:52.373Z,44.15
2024-02-10T11:46:55.062Z,43.42
2024-02-10T11:49:01.199Z,39.60
2024-02-10T11:51:05.448Z,41.22
2024-02-10T11:53:07.917Z,40.13
2024-02-10T11:55:11.729Z,41.17
2024-02-10T11:57:14.135Z,40.25
2024-02-10T11:59:18.404Z,43.05
2024-02-10T12:01:20.829Z,39.13
2024-02-10T12:03:25.715Z,35.90
2024-02-10T12:05:31.130Z,37.38
2024-02-10T12:07:33.676Z,37.38
2024-02-10T12:09:35.898Z,37.65
2024-02-10T12:11:39.162Z,34.22
2024-02-10T12:13:41.501Z,35.13
2024-02-10T12:15:45.086Z,34.78
2024-02-10T12:17:48.029Z,36.08
2024-02-10T12:19:54.080Z,36.97
2024-02-10T12:21:59.074Z,32.40
2024-02-10T12:24:01.985Z,33.03
2024-02-10T12:26:04.383Z,35.42
2024-02-10T12:28:07.035Z,37.10
2024-02-10T12:30:09.626Z,40.92
2024-02-10T12:32:12.525Z,42.00
2024-02-10T12:34:16.710Z,39.10
2024-02-10T12:36:21.731Z,39.28
2024-02-10T12:38:27.427Z,40.15
2024-02-10T12:40:30.426Z,38.03
2024-02-10T12:42:33.168Z,34.97
2024-02-10T12:44:36.859Z,43.78
2024-02-10T12:46:39.831Z,36.15
2024-02-10T12:48:42.509Z,38.63
2024-02-10T12:50:46.176Z,44.28
2024-02-10T12:52:48.870Z,35.92
2024-02-10T12:54:51.564Z,40.58
2024-02-10T12:56:55.062Z,44.45
2024-02-10T12:58:57.837Z,39.20
2024-02-10T13:01:00.591Z,41.05
2024-02-10T13:03:03.308Z,38.35
2024-02-10T13:05:06.130Z,37.53
2024-02-10T13:07:08.678Z,42.22
2024-02-10T13:09:11.140Z,40.90
2024-02-10T13:11:13.777Z,40.70
2024-02-10T13:13:17.894Z,37.63
2024-02-10T13:15:21.193Z,37.83
2024-02-10T13:17:24.074Z,38.17
2024-02-10T13:19:28.039Z,38.88
2024-02-10T13:21:30.732Z,38.28
2024-02-10T13:23:32.981Z,39.08
2024-02-10T13:25:35.468Z,31.83
2024-02-10T13:27:38.213Z,42.67
2024-02-10T13:29:40.622Z,46.58
2024-02-10T13:31:42.827Z,48.33
2024-02-10T13:33:45.344Z,43.50
2024-02-10T13:35:52.954Z,43.85
2024-02-10T13:38:13.949Z,47.33
2024-02-10T13:40:35.309Z,48.65
2024-02-10T13:42:56.572Z,46.10
2024-02-10T13:45:17.496Z,47.75
2024-02-10T13:47:38.303Z,49.92
2024-02-10T13:50:03.340Z,54.50
2024-02-10T13:52:24.731Z,52.00
2024-02-10T13:54:45.687Z,49.72
2024-02-10T13:57:07.071Z,43.25
2024-02-10T13:59:09.206Z,47.50
2024-02-10T14:01:14.089Z,46.50
2024-02-10T14:03:17.006Z,48.25
2024-02-10T14:05:39.837Z,51.75
2024-02-10T14:07:42.144Z,51.25
2024-02-10T14:09:46.350Z,57.45
2024-02-10T14:11:54.570Z,49.30
2024-02-10T14:13:57.455Z,53.75
2024-02-10T14:16:00.334Z,47.88
2024-02-10T14:18:04.786Z,60.33
2024-02-10T14:20:13.361Z,58.88
2024-02-10T14:22:19.166Z,58.10
2024-02-10T14:24:21.272Z,54.92
2024-02-10T14:26:41.224Z,53.33
2024-02-10T14:28:56.834Z,55.92
2024-02-10T14:30:59.236Z,59.15
2024-02-10T14:33:02.392Z,54.67
2024-02-10T14:35:20.553Z,53.75
2024-02-10T14:37:43.508Z,59.15
2024-02-10T14:39:46.156Z,65.25
2024-02-10T14:41:51.277Z,64.60
2024-02-10T14:43:53.731Z,65.88
2024-02-10T14:45:55.964Z,66.85
2024-02-10T14:47:59.372Z,63.97
2024-02-10T14:50:02.868Z,70.55
2024-02-10T14:52:05.692Z,75.45
2024-02-10T14:54:11.584Z,71.63
2024-02-10T14:56:15.369Z,69.15
2024-02-10T14:58:17.464Z,77.30
2024-02-10T15:00:25.127Z,79.00
2024-02-10T15:02:27.763Z,76.57
2024-02-10T15:04:30.303Z,84.20
2024-02-10T15:06:35.336Z,84.28
2024-02-10T15:08:40.448Z,82.60
2024-02-10T15:10:42.626Z,79.03
2024-02-10T15:12:45.614Z,99.40
2024-02-10T15:14:47.759Z,91.93
2024-02-10T15:16:50.461Z,98.07
2024-02-10T15:18:53.222Z,94.55
2024-02-10T15:20:56.828Z,95.97
2024-02-10T15:23:01.480Z,104.75
2024-02-10T15:25:05.224Z,111.28
2024-02-10T15:27:07.376Z,102.10
2024-02-10T15:29:09.832Z,125.68
2024-02-10T15:31:12.472Z,100.63
2024-02-10T15:33:19.606Z,104.25
2024-02-10T15:35:22.766Z,102.60
2024-02-10T15:37:25.706Z,129.25
2024-02-10T15:39:28.127Z,112.07
2024-02-10T15:41:30.609Z,122.10
2024-02-10T15:43:32.905Z,114.00
2024-02-10T15:45:39.341Z,116.03
2024-02-10T15:47:41.846Z,132.35
2024-02-10T15:49:44.722Z,129.43
2024-02-10T15:51:46.834Z,148.05
2024-02-10T15:53:49.258Z,130.63
2024-02-10T15:55:57.740Z,145.85
2024-02-10T15:58:00.664Z,204.93
2024-02-10T16:00:02.747Z,160.15
2024-02-10T16:02:11.846Z,159.20
2024-02-10T16:04:15.283Z,185.18
2024-02-10T16:06:18.682Z,129.00
2024-02-10T16:08:21.547Z,137.23
2024-02-10T16:10:24.533Z,137.07
2024-02-10T16:12:27.032Z,125.45
2024-02-10T16:14:30.354Z,135.88
2024-02-10T16:16:33.068Z,137.15
2024-02-10T16:18:36.549Z,120.90
2024-02-10T16:20:39.046Z,115.63
2024-02-10T16:22:41.582Z,131.30
2024-02-10T16:24:44.617Z,128.02
2024-02-10T16:26:47.044Z,223.38
2024-02-10T16:28:52.558Z,141.90
2024-02-10T16:30:55.530Z,137.43
2024-02-10T16:32:58.069Z,152.50
2024-02-10T16:35:05.392Z,186.75
2024-02-10T16:37:13.888Z,132.95
2024-02-10T16:39:16.509Z,136.70
2024-02-10T16:41:23.110Z,138.50
2024-02-10T16:43:25.571Z,133.23
2024-02-10T16:45:28.639Z,129.95
2024-02-10T16:47:31.468Z,151.27
2024-02-10T16:49:33.962Z,112.38
2024-02-10T16:51:38.068Z,109.70
2024-02-10T16:53:43.174Z,134.48
2024-02-10T16:55:46.113Z,193.75
2024-02-10T16:57:48.297Z,96.38
2024-02-10T16:59:51.140Z,106.38
2024-02-10T17:01:54.057Z,208.88
2024-02-10T17:03:56.567Z,187.18
2024-02-10T17:06:00.601Z,135.75
2024-02-10T17:08:04.945Z,252.65
2024-02-10T17:10:07.721Z,200.88
2024-02-10T17:12:11.012Z,131.48
2024-02-10T17:14:13.304Z,155.32
2024-02-10T17:16:17.429Z,101.47
2024-02-10T17:18:20.127Z,205.48
2024-02-10T17:20:22.779Z,214.30
2024-02-10T17:22:25.573Z,154.23
2024-02-10T17:24:28.470Z,133.77
2024-02-10T17:26:30.845Z,139.07
2024-02-10T17:28:33.896Z,120.60
2024-02-10T17:30:36.015Z,138.35
2024-02-10T17:32:38.993Z,127.10
2024-02-10T17:34:42.737Z,138.63
2024-02-10T17:36:46.253Z,123.40
2024-02-10T17:38:48.383Z,130.00
2024-02-10T17:40:51.163Z,140.52
2024-02-10T17:42:54.119Z,172.52
2024-02-10T17:44:58.271Z,151.88
2024-02-10T17:47:01.325Z,178.43
2024-02-10T17:49:11.151Z,219.63
2024-02-10T17:51:15.043Z,174.55
2024-02-10T17:53:28.086Z,145.10
2024-02-10T17:55:32.980Z,216.13
2024-02-10T17:57:36.238Z,148.27
2024-02-10T17:59:38.817Z,204.32
2024-02-10T18:01:41.265Z,231.07
2024-02-10T18:03:43.459Z,154.20
2024-02-10T18:05:50.771Z,172.93
2024-02-10T18:07:58.131Z,146.32
2024-02-10T18:10:05.908Z,147.93
2024-02-10T18:12:09.965Z,131.77
2024-02-10T18:14:14.112Z,135.25
2024-02-10T18:16:16.405Z,139.07
2024-02-10T18:18:19.604Z,129.85
2024-02-10T18:20:22.572Z,185.38
2024-02-10T18:22:25.125Z,151.30
2024-02-10T18:24:29.144Z,153.48
2024-02-10T18:26:31.950Z,290.35
2024-02-10T18:28:35.269Z,136.05
2024-02-10T18:30:37.905Z,210.18
2024-02-10T18:32:40.195Z,123.78
2024-02-10T18:34:42.826Z,127.10
2024-02-10T18:36:46.749Z,158.32
2024-02-10T18:38:49.313Z,158.73
2024-02-10T18:40:52.893Z,110.88
2024-02-10T18:42:56.524Z,141.88
2024-02-10T18:44:58.700Z,137.35
2024-02-10T18:47:01.183Z,170.68
2024-02-10T18:49:03.464Z,123.72
2024-02-10T18:51:07.163Z,144.52
2024-02-10T18:53:10.906Z,121.45
2024-02-10T18:55:19.417Z,111.60
2024-02-10T18:57:21.940Z,119.32
2024-02-10T18:59:24.400Z,133.13
2024-02-10T19:01:27.327Z,116.57
2024-02-10T19:03:30.493Z,136.70
2024-02-10T19:05:33.377Z,134.88
2024-02-10T19:07:38.257Z,150.38
2024-02-10T19:09:40.431Z,176.10
2024-02-10T19:11:43.449Z,172.80
2024-02-10T19:13:46.894Z,146.43
2024-02-10T19:15:50.109Z,234.82
2024-02-10T19:17:52.559Z,177.23
2024-02-10T19:19:55.141Z,234.27
2024-02-10T19:21:57.321Z,186.00
2024-02-10T19:24:02.091Z,135.02
2024-02-10T19:26:04.719Z,165.13
2024-02-10T19:28:11.292Z,157.10
2024-02-10T19:30:14.281Z,241.23
2024-02-10T19:32:17.198Z,241.00
2024-02-10T19:34:22.675Z,183.07
2024-02-10T19:36:25.336Z,172.23
2024-02-10T19:38:30.622Z,172.52
2024-02-10T19:40:33.418Z,187.02
2024-02-10T19:42:36.799Z,121.53
2024-02-10T19:44:39.395Z,267.55
2024-02-10T19:46:41.650Z,234.88
2024-02-10T19:48:48.284Z,160.43
2024-02-10T19:50:52.317Z,173.75
2024-02-10T19:52:59.141Z,187.45
2024-02-10T19:55:01.488Z,203.35
2024-02-10T19:57:04.425Z,177.07
2024-02-10T19:59:11.335Z,372.67
2024-02-10T20:01:13.872Z,234.68
2024-02-10T20:03:16.299Z,160.57
2024-02-10T20:05:19.437Z,181.23
2024-02-10T20:07:21.782Z,216.80
2024-02-10T20:09:27.816Z,287.88
2024-02-10T20:11:30.447Z,190.20
2024-02-10T20:13:33.029Z,192.55
2024-02-10T20:15:35.888Z,148.93
2024-02-10T20:17:42.320Z,211.52
2024-02-10T20:19:44.819Z,169.40
2024-02-10T20:21:50.141Z,116.88
2024-02-10T20:23:55.107Z,150.32
2024-02-10T20:25:57.992Z,200.27
2024-02-10T20:28:03.611Z,123.20
2024-02-10T20:30:10.682Z,119.97
2024-02-10T20:32:12.871Z,204.85
2024-02-10T20:34:15.891Z,255.07
2024-02-10T20:36:19.531Z,106.72
2024-02-10T20:38:23.117Z,148.43
2024-02-10T20:40:25.397Z,245.73
2024-02-10T20:42:28.277Z,152.07
2024-02-10T20:44:30.560Z,78.25
2024-02-10T20:46:33.236Z,110.55
2024-02-10T20:48:35.545Z,129.68
2024-02-10T20:50:38.111Z,96.65
2024-02-10T20:52:40.554Z,129.65
2024-02-10T20:54:49.488Z,137.65
2024-02-10T20:56:52.147Z,133.93
2024-02-10T20:58:56.085Z,122.18
2024-02-10T21:00:58.688Z,163.05
2024-02-10T21:03:02.334Z,151.15
2024-02-10T21:05:06.916Z,86.63
2024-02-10T21:07:11.092Z,140.98
2024-02-10T21:09:15.236Z,137.20
2024-02-10T21:11:17.766Z,138.35
2024-02-10T21:13:19.901Z,89.15
2024-02-10T21:15:23.505Z,118.80
2024-02-10T21:17:25.684Z,110.82
2024-02-10T21:19:28.546Z,223.25
2024-02-10T21:21:30.760Z,241.00
2024-02-10T21:23:36.066Z,208.65
2024-02-10T21:25:38.476Z,88.35
2024-02-10T21:27:42.530Z,115.70
2024-02-10T21:29:45.504Z,175.07
2024-02-10T21:31:48.748Z,87.05
2024-02-10T21:33:51.961Z,79.40
2024-02-10T21:35:56.114Z,87.03
2024-02-10T21:37:58.273Z,215.35
2024-02-10T21:40:01.144Z,108.55
2024-02-10T21:42:04.121Z,112.50
2024-02-10T21:44:07.320Z,96.75
2024-02-10T21:46:09.526Z,102.82
2024-02-10T21:48:12.479Z,98.80
2024-02-10T21:50:17.577Z,117.65
2024-02-10T21:52:20.233Z,198.27
2024-02-10T21:54:25.830Z,101.80
2024-02-10T21:56:28.498Z,192.55
2024-02-10T21:58:31.403Z,105.47
2024-02-10T22:00:34.241Z,93.50
2024-02-10T22:02:39.045Z,95.60
2024-02-10T22:04:42.560Z,200.43
2024-02-10T22:06:44.857Z,147.50
2024-02-10T22:08:48.600Z,96.80
2024-02-10T22:10:51.524Z,97.03
2024-02-10T22:12:54.570Z,109.18
2024-02-10T22:14:57.014Z,136.00
2024-02-10T22:17:00.639Z,124.55
2024-02-10T22:19:03.537Z,128.40
2024-02-10T22:21:06.722Z,147.10
2024-02-10T22:23:10.297Z,119.30
2024-02-10T22:25:12.685Z,131.93
2024-02-10T22:27:15.186Z,168.90
2024-02-10T22:29:18.790Z,268.08
2024-02-10T22:31:21.359Z,93.75
2024-02-10T22:33:24.194Z,150.55
2024-02-10T22:35:27.627Z,91.22
2024-02-10T22:37:30.508Z,136.07
2024-02-10T22:39:39.745Z,91.72
2024-02-10T22:41:43.397Z,135.32
2024-02-10T22:43:45.595Z,96.65
2024-02-10T22:45:49.604Z,81.82
2024-02-10T22:47:52.092Z,81.88
2024-02-10T22:49:56.403Z,109.13
2024-02-10T22:51:58.704Z,85.13
2024-02-10T22:54:01.165Z,230.25
2024-02-10T22:56:09.012Z,106.65
2024-02-10T22:58:12.322Z,109.07
2024-02-10T23:00:21.387Z,82.15
2024-02-10T23:02:23.949Z,139.52
2024-02-10T23:04:26.077Z,82.75
2024-02-10T23:06:38.067Z,96.32
2024-02-10T23:08:40.348Z,134.20
2024-02-10T23:10:43.484Z,187.77
2024-02-10T23:12:50.874Z,165.73
2024-02-10T23:14:54.653Z,94.72
2024-02-10T23:16:58.091Z,103.18
2024-02-10T23:19:01.981Z,112.45
2024-02-10T23:21:04.344Z,83.95
2024-02-10T23:23:06.790Z,136.13
2024-02-10T23:25:09.240Z,104.53
2024-02-10T23:27:12.670Z,104.43
2024-02-10T23:29:15.114Z,105.72
2024-02-10T23:31:20.636Z,120.03
2024-02-10T23:33:34.094Z,82.07
2024-02-10T23:35:36.960Z,123.68
2024-02-10T23:37:41.438Z,137.70
2024-02-10T23:39:44.149Z,58.13
2024-02-10T23:41:47.456Z,98.72
2024-02-10T23:43:49.976Z,83.35
2024-02-10T23:45:52.235Z,78.93
2024-02-10T23:47:59.867Z,68.82
2024-02-10T23:50:02.333Z,59.45
2024-02-10T23:52:07.255Z,69.80
2024-02-10T23:54:13.694Z,89.32
2024-02-10T23:56:16.674Z,59.13
2024-02-10T23:58:18.838Z,87.35
